Hlavní strana
METAR-TAF:

METAR-TAF

Letiště :

Versailles, Ohio, Spojené státy americké

zeměpisná šířka: 40-12-16N, zeměpisná délka: 084-31-55W, výška: 307 m

Aktuální stav počasí

Zpráva byla vytvořena před 23 minutami, v 23:55 UTC
Jihovýchodní vítr 4 kt
Teplota 0°C
Vlhkost vzduchu 59%
Tlak 1027 hPa
Viditelnost: 16.1 km
Jasno

METAR: KVES 072355Z AUTO 14004KT 10SM CLR 00/M07 A3032 RMK AO2

Čas: 19:18 (00:18 UTC)


TAF: chybějící

Stav a předpovědi počasí z více než 4 000 letišť (zprávy METAR a TAF).

Červené a žluté tečky na mapě představují dostupné meteorologické stanice.

Když kurzor umístíte na tečku, zobrazí se název stanice.

Pak kliknutím zobrazíte stav a předpověď počasí.

Chcete-li změnit mapu, kliknutím na zelené tlačítko se znaménkem +mapu přiblížíte, kliknutím na zelené tlačítko se znaménkem – mapu oddálíte a kliknutím na zelené šipky přejdete na sousední mapy.


METAR-TAF: